Time;durP1;ratioP1;P1;durP2;ratioP2;P2;SDS_P1;SDS_P2;PMS_P1;PMS_P2;Temp;Humidity;BMP_temperature;BMP_pressure;BME280_temperature;BME280_humidity;BME280_pressure;Samples;Min_cycle;Max_cycle;Signal;HPM_P1;HPM_P2
2023/07/11 07:01:22;;;;;;;0.30;0.20;;;30.60;99.90;36.40;101224.00;;;;6220815;22;2091370;-71
2023/07/11 07:03:52;;;;;;;0.52;0.52;;;31.60;99.90;34.40;101249.00;;;;6256809;22;20160;-71
2023/07/11 07:06:19;;;;;;;0.52;0.52;;;31.10;99.90;34.30;101268.00;;;;6282779;22;20564;-71
2023/07/11 07:08:45;;;;;;;0.10;0.10;;;31.00;99.90;35.30;101261.00;;;;6281918;22;20179;-71
2023/07/11 07:11:13;;;;;;;0.20;0.20;;;31.30;99.90;32.70;101285.00;;;;6282805;22;20548;-71
2023/07/11 07:13:49;;;;;;;0.40;0.40;;;30.60;99.90;34.20;101276.00;;;;6282056;22;20164;-71
2023/07/11 07:16:15;;;;;;;0.20;0.20;;;30.60;99.90;32.80;101281.00;;;;6282315;22;20209;-71
2023/07/11 07:18:42;;;;;;;0.68;0.30;;;29.80;99.90;31.60;101283.00;;;;6282159;22;20592;-71
2023/07/11 07:21:26;;;;;;;0.10;0.10;;;28.90;99.90;31.30;101302.00;;;;6282313;22;20160;-71
2023/07/11 07:23:55;;;;;;;0.20;0.20;;;29.00;99.90;31.80;101297.00;;;;6256226;22;20156;-71
2023/07/11 07:26:21;;;;;;;0.10;0.10;;;28.50;99.90;34.30;101274.00;;;;6256725;22;20196;-71
2023/07/11 07:28:50;;;;;;;0.20;0.20;;;29.50;99.90;32.60;101277.00;;;;6281650;22;20494;-71
2023/07/11 07:31:16;;;;;;;0.15;0.15;;;29.40;99.90;31.10;101289.00;;;;6309205;22;20157;-71
2023/07/11 07:33:51;;;;;;;0.20;0.20;;;28.50;99.90;33.00;101273.00;;;;6282026;22;20488;-71
2023/07/11 07:36:17;;;;;;;2.95;0.90;;;28.70;99.90;34.50;101252.00;;;;6282270;22;20144;-72
2023/07/11 07:38:43;;;;;;;0.10;0.10;;;30.10;99.90;35.00;101229.00;;;;6281728;22;20188;-72
2023/07/11 07:41:10;;;;;;;0.20;0.20;;;31.00;99.90;34.80;101264.00;;;;6309390;22;20159;-71
2023/07/11 07:43:39;;;;;;;0.20;0.20;;;31.00;99.90;37.20;101242.00;;;;6282114;22;20171;-71
2023/07/11 07:46:06;;;;;;;0.10;0.10;;;32.80;99.90;34.90;101245.00;;;;6309021;22;20148;-72
2023/07/11 07:48:33;;;;;;;0.10;0.10;;;31.90;99.90;35.00;101226.00;;;;6282128;22;20152;-71
2023/07/11 07:51:10;;;;;;;0.57;0.30;;;31.90;99.90;30.70;101269.00;;;;6255798;22;20219;-71
2023/07/11 07:53:39;;;;;;;0.28;0.28;;;30.00;99.90;35.50;101235.00;;;;6281963;22;20223;-71
2023/07/11 07:56:21;;;;;;;0.10;0.10;;;30.90;99.90;34.40;101229.00;;;;6282052;22;20137;-71
2023/07/11 07:58:50;;;;;;;0.10;0.10;;;30.70;99.90;34.00;101242.00;;;;6309126;22;20136;-71
2023/07/11 08:01:19;;;;;;;0.25;0.25;;;31.30;99.90;35.50;101236.00;;;;6281453;22;20164;-71
2023/07/11 08:03:45;;;;;;;1.50;0.60;;;32.00;99.90;30.60;101260.00;;;;6308850;22;20176;-71
2023/07/11 08:06:24;;;;;;;2.40;1.20;;;30.00;99.90;34.30;101233.00;;;;6281521;22;20151;-71
2023/07/11 08:08:54;;;;;;;0.93;0.88;;;30.40;99.90;30.50;101252.00;;;;6282367;22;20167;-71
2023/07/11 08:11:21;;;;;;;0.10;0.10;;;29.00;99.90;33.40;101246.00;;;;6281651;22;20166;-71
2023/07/11 08:13:50;;;;;;;0.10;0.10;;;29.50;99.90;33.50;101237.00;;;;6282094;22;20140;-71
2023/07/11 08:16:18;;;;;;;0.45;0.45;;;29.70;99.90;31.80;101241.00;;;;6281428;22;20160;-71
2023/07/11 08:18:45;;;;;;;0.10;0.10;;;28.80;99.90;32.60;101224.00;;;;6282072;22;20205;-71
2023/07/11 08:21:11;;;;;;;0.10;0.10;;;28.40;99.90;32.10;101248.00;;;;6308403;22;20147;-71
2023/07/11 08:23:39;;;;;;;0.40;0.40;;;29.00;99.90;34.20;101227.00;;;;6280847;22;20271;-71
2023/07/11 08:26:10;;;;;;;0.32;0.32;;;29.70;99.90;33.20;101196.00;;;;6281105;22;20151;-72
2023/07/11 08:28:36;;;;;;;0.20;0.20;;;30.30;99.90;35.60;101217.00;;;;6282055;22;20136;-72
2023/07/11 08:31:03;;;;;;;0.65;0.43;;;31.10;99.90;34.40;101213.00;;;;6281705;22;20175;-71
2023/07/11 08:33:29;;;;;;;0.25;0.25;;;31.10;99.90;33.60;101216.00;;;;6281962;22;20140;-71
2023/07/11 08:35:59;;;;;;;0.10;0.10;;;31.00;99.90;32.20;101231.00;;;;6280891;22;20194;-71
2023/07/11 08:38:27;;;;;;;0.60;0.60;;;29.60;99.90;32.20;101236.00;;;;6308897;22;20152;-71
2023/07/11 08:41:15;;;;;;;1.45;0.75;;;29.40;99.90;32.40;101218.00;;;;6281831;22;20141;-71
2023/07/11 08:44:30;;;;;;;3.63;3.33;;;28.50;99.90;30.60;101241.00;;;;6276737;22;20192;-69
2023/07/11 08:47:05;;;;;;;0.70;0.50;;;29.10;99.90;32.10;101230.00;;;;6281030;22;20220;-70
2023/07/11 08:50:01;;;;;;;0.82;0.75;;;28.90;99.90;32.90;101210.00;;;;6281182;22;20136;-69
2023/07/11 08:52:45;;;;;;;0.10;0.10;;;29.10;99.90;36.10;101189.00;;;;6280629;22;20583;-70
2023/07/11 08:55:32;;;;;;;0.65;0.45;;;31.00;99.90;35.30;101204.00;;;;6284505;22;20160;-71
2023/07/11 08:58:21;;;;;;;1.75;1.42;;;32.50;99.90;33.30;101210.00;;;;6255351;22;20159;-70
2023/07/11 09:00:50;;;;;;;0.52;0.52;;;31.60;99.90;35.40;101197.00;;;;6255027;22;20179;-70
2023/07/11 09:03:34;;;;;;;0.40;0.40;;;31.70;99.90;36.10;101187.00;;;;6255654;22;20238;-71
2023/07/11 09:06:09;;;;;;;1.02;1.00;;;32.00;99.90;30.90;101220.00;;;;6255535;22;20163;-70
2023/07/11 09:08:44;;;;;;;1.63;1.35;;;29.60;99.90;31.30;101225.00;;;;6281098;22;20136;-70
2023/07/11 09:11:34;;;;;;;0.35;0.35;;;29.10;99.90;32.40;101216.00;;;;6280951;22;20151;-70
2023/07/11 09:14:27;;;;;;;0.20;0.20;;;29.00;99.90;33.40;101198.00;;;;6308540;22;20450;-70
2023/07/11 09:17:43;;;;;;;1.20;0.82;;;29.70;99.90;30.70;101223.00;;;;6280553;22;20152;-70
2023/07/11 09:20:30;;;;;;;0.22;0.22;;;28.70;99.90;33.00;101199.00;;;;6280767;22;20581;-72
2023/07/11 09:23:48;;;;;;;1.02;0.57;;;28.90;99.90;31.40;101215.00;;;;6280874;22;20580;-72
2023/07/11 09:26:27;;;;;;;0.35;0.35;;;29.50;99.90;33.00;101205.00;;;;6281097;22;20167;-70
2023/07/11 09:29:22;;;;;;;0.75;0.38;;;29.50;99.90;32.00;101206.00;;;;6281198;22;20193;-70
2023/07/11 09:32:11;;;;;;;0.28;0.28;;;29.60;99.90;33.50;101198.00;;;;6267619;22;20496;-71
2023/07/11 09:34:49;;;;;;;0.30;0.30;;;29.70;99.90;32.50;101202.00;;;;6280415;22;20148;-71
2023/07/11 09:37:37;;;;;;;0.28;0.28;;;29.50;99.90;34.30;101187.00;;;;6280483;22;20144;-71
2023/07/11 09:40:15;;;;;;;0.17;0.17;;;30.30;99.90;33.70;101185.00;;;;6255316;22;20477;-71
2023/07/11 09:42:47;;;;;;;0.20;0.20;;;30.50;99.90;33.70;101173.00;;;;6280928;22;20179;-71
2023/07/11 09:45:17;;;;;;;0.30;0.30;;;30.50;99.90;34.40;101173.00;;;;6280901;22;20166;-71
2023/07/11 09:47:52;;;;;;;0.52;0.52;;;30.50;99.90;35.10;101176.00;;;;6280686;22;20477;-71
2023/07/11 09:50:38;;;;;;;0.10;0.10;;;31.60;99.90;37.10;101167.00;;;;6280845;22;20230;-71
2023/07/11 09:53:13;;;;;;;0.43;0.43;;;32.20;99.90;35.40;101165.00;;;;6280465;22;20167;-71
2023/07/11 09:56:12;;;;;;;0.10;0.10;;;32.10;99.90;35.60;101164.00;;;;6280829;22;20225;-71
2023/07/11 09:59:12;;;;;;;0.25;0.25;;;32.20;99.90;33.80;101171.00;;;;6280309;22;20136;-71
2023/07/11 10:01:38;;;;;;;0.75;0.40;;;30.80;99.90;33.60;101163.00;;;;6280776;22;20244;-71
2023/07/11 10:04:15;;;;;;;0.10;0.10;;;30.90;99.90;37.00;101148.00;;;;6280678;22;20243;-71
2023/07/11 10:07:03;;;;;;;3.05;1.50;;;32.20;99.90;32.20;101169.00;;;;6280752;22;20686;-71
2023/07/11 10:09:46;;;;;;;0.35;0.35;;;30.90;99.90;32.80;101163.00;;;;6255079;22;20205;-71
2023/07/11 10:12:23;;;;;;;0.30;0.30;;;29.70;99.90;33.40;101162.00;;;;6254909;22;20248;-71
2023/07/11 10:14:58;;;;;;;0.20;0.20;;;30.40;99.90;33.10;101148.00;;;;6280305;22;20194;-71
2023/07/11 10:17:34;;;;;;;0.85;0.40;;;30.20;99.90;34.40;101153.00;;;;6280540;22;20572;-71
2023/07/11 10:20:16;;;;;;;0.10;0.10;;;30.80;99.90;36.50;101149.00;;;;6254981;22;20159;-71
2023/07/11 10:33:46;;;;;;;4.95;1.02;;;30.00;99.90;30.90;101179.00;;;;5070565;28;21076;-70
2023/07/11 10:36:24;;;;;;;0.10;0.10;;;28.70;99.90;32.60;101171.00;;;;5032283;28;20191;-70
2023/07/11 10:39:37;;;;;;;0.63;0.55;;;28.80;99.90;31.60;101169.00;;;;5077497;28;20190;-70
2023/07/11 10:42:18;;;;;;;0.45;0.45;;;28.90;99.90;33.60;101163.00;;;;5041563;28;20199;-70
2023/07/11 10:44:47;;;;;;;2.95;2.03;;;29.30;99.90;31.80;101165.00;;;;5040774;28;20206;-70
2023/07/11 10:47:24;;;;;;;0.65;0.40;;;29.70;99.90;31.80;101166.00;;;;5049189;28;20190;-70
2023/07/11 10:49:54;;;;;;;0.57;0.55;;;29.10;99.90;34.30;101152.00;;;;5045806;28;20189;-70
2023/07/11 10:52:25;;;;;;;1.40;1.13;;;30.60;99.90;31.00;101165.00;;;;5055307;28;20293;-70
2023/07/11 10:55:00;;;;;;;0.10;0.10;;;29.40;99.90;34.80;101139.00;;;;5077123;28;20232;-70
2023/07/11 10:57:41;;;;;;;0.88;0.60;;;30.40;99.90;34.20;101102.00;;;;5049033;28;20182;-70
2023/07/11 11:00:22;;;;;;;1.88;0.68;;;30.70;99.90;32.90;101107.00;;;;5049822;28;20170;-70
2023/07/11 11:03:36;;;;;;;1.98;1.48;;;30.90;99.90;32.40;101144.00;;;;5048486;28;20193;-70
2023/07/11 11:06:54;;;;;;;0.10;0.10;;;30.10;99.90;32.50;101141.00;;;;5048834;28;20273;-70
2023/07/11 11:09:42;;;;;;;5.70;1.15;;;29.40;99.90;32.20;101144.00;;;;5042060;28;20219;-70
2023/07/11 11:12:52;;;;;;;1.13;0.85;;;29.20;99.90;30.40;101150.00;;;;5031986;28;20233;-70
2023/07/11 11:15:58;;;;;;;0.55;0.55;;;28.70;99.90;32.80;101123.00;;;;5046505;28;20190;-70
2023/07/11 11:19:15;;;;;;;2.97;1.45;;;29.50;99.90;31.40;101130.00;;;;5046155;28;20190;-70
2023/07/11 11:22:19;;;;;;;0.40;0.40;;;29.50;99.90;33.00;101123.00;;;;5039137;28;20210;-70
2023/07/11 11:25:00;;;;;;;0.88;0.68;;;30.10;99.90;32.10;101129.00;;;;5034214;28;20640;-70
2023/07/11 11:28:24;;;;;;;0.15;0.15;;;29.70;99.90;33.70;101113.00;;;;5030096;28;20272;-70
2023/07/11 11:31:29;;;;;;;0.63;0.63;;;30.00;99.90;35.90;101084.00;;;;5007547;28;20242;-70
2023/07/11 11:34:26;;;;;;;0.98;0.77;;;31.10;99.90;36.70;101080.00;;;;4991450;28;20344;-70
2023/07/11 11:37:05;;;;;;;1.10;0.63;;;33.20;99.90;36.10;101081.00;;;;4991859;28;20333;-71
2023/07/11 11:40:08;;;;;;;0.20;0.20;;;32.60;99.90;35.90;101076.00;;;;5007812;28;20183;-70
2023/07/11 11:43:11;;;;;;;1.75;0.80;;;33.00;99.90;34.40;101081.00;;;;4976479;28;20287;-70
2023/07/11 11:45:41;;;;;;;1.65;0.90;;;32.10;99.90;34.50;101076.00;;;;4988561;28;20195;-70
2023/07/11 11:48:18;;;;;;;1.55;0.82;;;31.50;99.90;33.90;101056.00;;;;5032747;28;20217;-70
2023/07/11 11:50:48;;;;;;;3.83;1.00;;;31.20;99.90;32.60;101085.00;;;;5018630;28;20186;-70
2023/07/11 11:53:46;;;;;;;1.48;1.25;;;30.30;99.90;31.90;101102.00;;;;5034943;28;20244;-70
2023/07/11 11:56:20;;;;;;;0.20;0.20;;;29.70;99.90;34.20;101075.00;;;;5031561;28;20275;-70
2023/07/11 11:59:10;;;;;;;0.20;0.20;;;30.30;99.90;34.60;101066.00;;;;5050974;28;20182;-70
2023/07/11 12:01:59;;;;;;;0.25;0.25;;;30.70;99.90;34.00;101047.00;;;;5016161;28;20187;-70
2023/07/11 12:04:30;;;;;;;3.47;1.27;;;31.20;99.90;32.40;101036.00;;;;5030520;28;20178;-70
2023/07/11 12:07:12;;;;;;;0.75;0.70;;;30.60;99.90;33.30;101038.00;;;;5034316;28;20275;-70
2023/07/11 12:10:03;;;;;;;0.68;0.68;;;30.20;99.90;33.30;101074.00;;;;5024964;28;20210;-70
2023/07/11 12:12:42;;;;;;;1.02;0.90;;;30.40;99.90;34.30;101067.00;;;;5033904;28;20696;-70
2023/07/11 12:15:14;;;;;;;0.10;0.10;;;30.40;99.90;34.60;101080.00;;;;5035585;28;20187;-70
2023/07/11 12:17:54;;;;;;;0.10;0.10;;;30.90;99.90;35.00;101054.00;;;;5035628;28;20187;-70
2023/07/11 12:20:27;;;;;;;3.45;1.27;;;31.10;99.90;33.40;101038.00;;;;5035706;28;20220;-70
2023/07/11 12:22:53;;;;;;;0.20;0.20;;;30.70;99.90;34.10;101058.00;;;;5017884;28;20183;-70
2023/07/11 12:25:29;;;;;;;0.10;0.10;;;30.90;99.90;35.00;101043.00;;;;5035548;28;20633;-70
2023/07/11 12:28:01;;;;;;;1.20;1.08;;;31.30;99.90;33.40;101068.00;;;;5034140;28;20190;-70
2023/07/11 12:30:29;;;;;;;0.10;0.10;;;30.90;99.90;35.10;101049.00;;;;5034033;28;20241;-70
2023/07/11 12:33:14;;;;;;;0.13;0.13;;;30.90;99.90;34.40;101056.00;;;;5035261;28;20219;-70
2023/07/11 12:35:40;;;;;;;0.10;0.10;;;30.90;99.90;34.50;101022.00;;;;5035639;28;20183;-70
2023/07/11 12:38:21;;;;;;;1.10;0.98;;;30.50;99.90;34.30;101048.00;;;;5034206;28;20259;-70
2023/07/11 12:41:12;;;;;;;0.68;0.63;;;30.80;99.90;34.70;101016.00;;;;5033515;28;20201;-70
2023/07/11 12:43:41;;;;;;;0.63;0.60;;;31.10;99.90;34.20;101034.00;;;;5033692;28;20194;-70
2023/07/11 12:46:34;;;;;;;1.13;0.90;;;30.80;99.90;32.50;101050.00;;;;5017822;28;20222;-70
2023/07/11 12:49:04;;;;;;;0.45;0.45;;;30.10;99.90;32.00;101042.00;;;;5033648;28;20183;-70
2023/07/11 12:51:37;;;;;;;2.30;2.10;;;29.70;99.90;31.80;101046.00;;;;5033887;28;20294;-70
2023/07/11 12:54:15;;;;;;;0.70;0.70;;;29.50;99.90;31.80;101047.00;;;;5033648;28;20191;-70
2023/07/11 12:56:49;;;;;;;0.20;0.20;;;29.20;99.90;32.90;101046.00;;;;5016575;28;20281;-70
2023/07/11 12:59:32;;;;;;;0.30;0.30;;;29.40;99.90;32.90;101041.00;;;;5033818;28;20178;-70
2023/07/11 13:02:01;;;;;;;0.20;0.20;;;29.70;99.90;34.10;101039.00;;;;5033406;28;20261;-70
2023/07/11 13:04:43;;;;;;;0.20;0.20;;;30.10;99.90;33.40;101041.00;;;;5033581;28;20225;-70
2023/07/11 13:07:26;;;;;;;0.43;0.30;;;30.20;99.90;34.00;101016.00;;;;5022199;28;20183;-70
2023/07/11 13:09:56;;;;;;;0.50;0.50;;;30.10;99.90;34.00;101028.00;;;;5031151;28;20182;-70
2023/07/11 13:12:36;;;;;;;1.05;1.05;;;30.30;99.90;33.00;101021.00;;;;5032909;28;20217;-70
2023/07/11 13:15:19;;;;;;;0.20;0.20;;;30.20;99.90;32.80;101030.00;;;;5030060;28;20530;-70
2023/07/11 13:17:55;;;;;;;0.10;0.10;;;29.70;99.90;34.70;100998.00;;;;5033067;28;20183;-70
2023/07/11 13:20:24;;;;;;;0.77;0.77;;;30.30;99.90;33.80;101026.00;;;;5024668;28;20660;-70
2023/07/11 13:22:52;;;;;;;0.85;0.85;;;30.70;99.90;34.70;101011.00;;;;5016889;28;20183;-70
2023/07/11 13:25:34;;;;;;;0.10;0.10;;;30.80;99.90;35.10;101002.00;;;;5033369;28;20175;-70
2023/07/11 13:28:20;;;;;;;1.42;0.95;;;31.30;99.90;34.30;101002.00;;;;5021773;28;20179;-70
2023/07/11 13:30:58;;;;;;;0.28;0.28;;;31.30;99.90;32.60;101010.00;;;;5034481;28;20723;-70
2023/07/11 13:33:37;;;;;;;1.02;0.85;;;30.30;99.90;33.80;101001.00;;;;5034060;28;20643;-70
2023/07/11 13:36:15;;;;;;;0.10;0.10;;;30.30;99.90;35.40;100998.00;;;;5032963;28;20190;-70
2023/07/11 13:38:46;;;;;;;1.38;0.50;;;30.80;99.90;33.20;101018.00;;;;5032567;28;20236;-70
2023/07/11 13:41:17;;;;;;;1.15;1.05;;;30.50;99.90;33.40;101005.00;;;;5032548;28;20209;-70
2023/07/11 13:43:45;;;;;;;0.10;0.10;;;30.30;99.90;33.70;101002.00;;;;5014195;28;20248;-70
2023/07/11 13:46:30;;;;;;;0.10;0.10;;;30.10;99.90;35.00;101009.00;;;;5062148;28;20183;-70
2023/07/11 13:48:57;;;;;;;0.85;0.68;;;30.40;99.90;32.40;101016.00;;;;5053745;28;20179;-69
2023/07/11 13:51:34;;;;;;;4.30;0.65;;;29.80;99.90;34.50;101003.00;;;;5023912;28;20230;-70
2023/07/11 13:54:29;;;;;;;0.10;0.10;;;30.30;99.90;34.50;101009.00;;;;5042053;28;20712;-70
2023/07/11 13:56:58;;;;;;;0.65;0.40;;;30.70;99.90;34.50;101003.00;;;;5025683;28;20205;-70
2023/07/11 13:59:24;;;;;;;0.10;0.10;;;30.90;99.90;34.70;100993.00;;;;5032274;28;20191;-70
2023/07/11 14:01:50;;;;;;;0.10;0.10;;;30.90;99.90;34.40;100992.00;;;;5032244;28;20202;-70
2023/07/11 14:04:22;;;;;;;0.30;0.30;;;30.90;99.90;34.10;100991.00;;;;5033237;28;20221;-70
2023/07/11 14:06:51;;;;;;;0.40;0.40;;;30.60;99.90;33.80;100983.00;;;;5031849;28;20182;-70
2023/07/11 14:09:20;;;;;;;0.22;0.22;;;30.50;99.90;33.50;100993.00;;;;5033211;28;20195;-70
2023/07/11 14:11:49;;;;;;;0.25;0.25;;;30.40;99.90;34.40;100960.00;;;;5032276;28;20210;-70
2023/07/11 14:14:39;;;;;;;0.30;0.30;;;30.80;99.90;34.90;100971.00;;;;5015427;28;20195;-70
2023/07/11 14:17:05;;;;;;;0.10;0.10;;;31.20;99.90;34.50;100974.00;;;;5033523;28;20189;-70
2023/07/11 14:19:33;;;;;;;0.20;0.13;;;31.00;99.90;34.70;100957.00;;;;5031926;28;20649;-70
2023/07/11 14:22:02;;;;;;;0.40;0.40;;;31.10;99.90;33.60;100963.00;;;;5031892;28;20222;-69
2023/07/11 14:24:28;;;;;;;0.20;0.20;;;30.60;99.90;33.10;100962.00;;;;5015279;28;20198;-69
2023/07/11 14:26:57;;;;;;;0.70;0.65;;;30.20;99.90;33.40;100976.00;;;;5031883;28;20209;-70
2023/07/11 14:29:28;;;;;;;0.10;0.10;;;30.10;99.90;33.20;100957.00;;;;5033157;28;20185;-70
2023/07/11 14:31:57;;;;;;;0.52;0.52;;;30.00;99.90;32.70;100961.00;;;;5031809;28;20297;-69
2023/07/11 14:34:28;;;;;;;0.32;0.20;;;29.70;99.90;33.30;100958.00;;;;5031789;28;20190;-70
2023/07/11 14:36:57;;;;;;;0.75;0.75;;;29.90;99.90;33.20;100953.00;;;;5015342;28;20183;-71
2023/07/11 14:39:26;;;;;;;0.10;0.10;;;30.00;99.90;34.60;100936.00;;;;5028488;28;20195;-70
2023/07/11 14:41:52;;;;;;;0.10;0.10;;;30.40;99.90;34.20;100958.00;;;;5047727;28;20549;-70
2023/07/11 14:44:29;;;;;;;0.22;0.22;;;30.50;99.90;33.70;100958.00;;;;5031836;28;20190;-70
2023/07/11 14:46:58;;;;;;;1.15;1.05;;;30.60;99.90;34.60;100944.00;;;;5031879;28;20190;-70
2023/07/11 14:49:27;;;;;;;0.20;0.20;;;30.60;99.90;35.20;100945.00;;;;5022128;28;20194;-70
2023/07/11 14:51:56;;;;;;;0.10;0.10;;;30.80;99.90;33.70;100935.00;;;;5032985;28;20199;-70
2023/07/11 14:54:29;;;;;;;3.13;1.48;;;30.50;99.90;34.80;100944.00;;;;5028524;28;20240;-70
2023/07/11 14:56:55;;;;;;;0.60;0.52;;;30.90;99.90;34.40;100918.00;;;;5047016;28;20203;-70
2023/07/11 14:59:32;;;;;;;0.60;0.60;;;30.80;99.90;33.50;100962.00;;;;5032829;28;20190;-69
2023/07/11 15:02:22;;;;;;;0.40;0.40;;;30.40;99.90;33.80;100948.00;;;;5031575;28;20181;-70
2023/07/11 15:04:48;;;;;;;0.73;0.57;;;30.40;99.90;33.80;100947.00;;;;5031731;28;20270;-70
2023/07/11 15:07:14;;;;;;;0.40;0.17;;;30.50;99.90;33.20;100953.00;;;;5031664;28;20274;-69
2023/07/11 15:09:40;;;;;;;0.82;0.82;;;30.20;99.90;34.40;100945.00;;;;5015120;28;20194;-70
2023/07/11 15:12:30;;;;;;;0.15;0.15;;;30.40;99.90;35.00;100950.00;;;;5033142;28;20203;-69
2023/07/11 15:15:11;;;;;;;0.17;0.17;;;30.70;99.90;35.20;100943.00;;;;5032610;28;20191;-70
2023/07/11 15:17:44;;;;;;;0.20;0.20;;;30.90;99.90;34.20;100942.00;;;;5031563;28;20183;-70
2023/07/11 15:20:24;;;;;;;0.30;0.30;;;30.60;99.90;34.20;100959.00;;;;5019448;28;20272;-70
2023/07/11 15:22:56;;;;;;;6.50;0.90;;;30.30;99.90;33.30;100973.00;;;;5031735;28;20184;-70
2023/07/11 15:25:39;;;;;;;1.50;1.30;;;29.90;99.90;32.90;100985.00;;;;5051562;28;20214;-70
2023/07/11 15:28:30;;;;;;;0.10;0.10;;;29.50;99.90;33.80;100977.00;;;;5035960;28;20186;-69
2023/07/11 15:31:21;;;;;;;0.13;0.13;;;29.50;99.90;31.90;100983.00;;;;5034281;28;20668;-70
2023/07/11 15:33:53;;;;;;;0.57;0.50;;;29.20;99.90;32.20;100980.00;;;;5025671;28;20280;-70
2023/07/11 15:36:22;;;;;;;0.25;0.25;;;29.00;99.90;32.50;100968.00;;;;5036177;28;20263;-69
2023/07/11 15:38:50;;;;;;;1.27;0.82;;;28.80;99.90;32.10;100966.00;;;;5036387;28;20245;-69
2023/07/11 15:41:27;;;;;;;0.38;0.38;;;28.70;99.90;32.80;100969.00;;;;5035463;28;20178;-69
2023/07/11 15:45:05;;;;;;;0.30;0.30;;;28.80;99.90;32.20;100968.00;;;;5023323;28;20191;-69
2023/07/11 15:47:36;;;;;;;6.50;0.55;;;28.70;99.90;32.60;100960.00;;;;5035639;28;20257;-69
2023/07/11 15:51:06;;;;;;;0.20;0.20;;;28.90;99.90;32.10;100951.00;;;;5035856;28;20233;-69
2023/07/11 15:54:43;;;;;;;0.75;0.75;;;28.90;99.90;33.10;100959.00;;;;5026436;28;20552;-70
2023/07/11 15:57:25;;;;;;;0.32;0.32;;;29.00;99.90;31.90;100945.00;;;;5030511;28;20191;-69
2023/07/11 16:00:45;;;;;;;0.30;0.30;;;28.90;99.90;31.20;100947.00;;;;5035171;28;20573;-70
2023/07/11 16:03:23;;;;;;;0.22;0.17;;;28.40;99.90;31.40;100955.00;;;;5023876;28;20653;-69
2023/07/11 16:06:28;;;;;;;8.48;3.03;;;28.00;99.90;32.50;100942.00;;;;5034493;28;20187;-69
2023/07/11 16:09:00;;;;;;;0.10;0.10;;;28.40;99.90;32.70;100925.00;;;;5016709;28;20191;-70
2023/07/11 16:11:26;;;;;;;0.20;0.20;;;28.90;99.90;32.00;100935.00;;;;5025363;28;20261;-70
2023/07/11 16:14:01;;;;;;;0.10;0.10;;;28.70;99.90;32.50;100924.00;;;;5034401;28;21004;-70
2023/07/11 16:16:29;;;;;;;0.30;0.30;;;28.40;99.90;33.20;100930.00;;;;5034400;28;20198;-69
2023/07/11 16:19:20;;;;;;;0.20;0.20;;;28.80;99.90;33.10;100929.00;;;;5035511;28;20197;-69
2023/07/11 16:22:00;;;;;;;0.10;0.10;;;29.10;99.90;32.80;100933.00;;;;5034669;28;20201;-69
2023/07/11 16:24:32;;;;;;;0.10;0.10;;;29.10;99.90;32.90;100928.00;;;;5035271;28;20752;-69
2023/07/11 16:27:01;;;;;;;0.25;0.25;;;28.90;99.90;32.40;100926.00;;;;5031329;28;20203;-69
2023/07/11 16:29:46;;;;;;;0.10;0.10;;;28.90;99.90;32.60;100884.00;;;;5035596;28;20225;-69
2023/07/11 16:32:14;;;;;;;0.30;0.30;;;28.80;99.90;32.80;100922.00;;;;5028900;28;20268;-70
2023/07/11 16:34:43;;;;;;;0.20;0.20;;;28.90;99.90;32.10;100934.00;;;;5033934;28;20185;-70
2023/07/11 16:37:19;;;;;;;0.10;0.10;;;28.70;99.90;32.20;100920.00;;;;5033832;28;20277;-70
2023/07/11 16:39:49;;;;;;;0.60;0.60;;;28.50;99.90;31.80;100932.00;;;;5014287;28;20230;-69
2023/07/11 16:42:25;;;;;;;1.15;0.32;;;28.20;99.90;31.40;100889.00;;;;5060578;28;20197;-69
2023/07/11 16:44:51;;;;;;;0.57;0.57;;;28.10;99.90;31.90;100922.00;;;;5047246;28;20225;-69
2023/07/11 16:47:18;;;;;;;0.10;0.10;;;28.10;99.90;31.20;100923.00;;;;5033670;28;20190;-69
2023/07/11 16:49:50;;;;;;;0.10;0.10;;;27.90;99.90;32.20;100869.00;;;;5017176;28;20186;-69
2023/07/11 16:52:24;;;;;;;0.10;0.10;;;28.00;99.90;32.30;100899.00;;;;5033656;28;20227;-69
2023/07/11 16:54:57;;;;;;;0.13;0.13;;;28.20;99.90;32.00;100877.00;;;;5039340;28;20179;-70
2023/07/11 16:57:23;;;;;;;0.20;0.20;;;28.20;99.90;31.80;100909.00;;;;5034937;28;20183;-69
2023/07/11 16:59:49;;;;;;;0.20;0.20;;;28.20;99.90;32.00;100865.00;;;;5033417;28;20266;-70
2023/07/11 17:02:23;;;;;;;0.10;0.10;;;28.10;99.90;32.50;100893.00;;;;5033380;28;20218;-70
2023/07/11 17:04:53;;;;;;;0.10;0.10;;;28.30;99.90;32.50;100888.00;;;;5033601;28;20186;-70
2023/07/11 17:07:26;;;;;;;0.10;0.10;;;28.40;99.90;32.50;100881.00;;;;5033591;28;20187;-70
2023/07/11 17:09:52;;;;;;;0.22;0.22;;;28.30;99.90;32.20;100886.00;;;;5033357;28;20230;-70
2023/07/11 17:12:21;;;;;;;0.50;0.28;;;28.40;99.90;31.60;100877.00;;;;5033212;28;20665;-69
2023/07/11 17:14:47;;;;;;;0.10;0.10;;;28.20;99.90;31.90;100891.00;;;;5033244;28;20195;-69
2023/07/11 17:17:24;;;;;;;0.50;0.50;;;28.00;99.90;31.40;100901.00;;;;5032916;28;20228;-70
2023/07/11 17:19:52;;;;;;;0.82;0.73;;;27.90;99.90;30.10;100890.00;;;;5032880;28;20232;-70
2023/07/11 17:22:19;;;;;;;0.20;0.20;;;27.40;99.90;29.60;100826.00;;;;5033266;28;20197;-69
2023/07/11 17:24:45;;;;;;;0.40;0.40;;;26.70;99.90;28.80;100749.00;;;;5033371;28;20187;-69
2023/07/11 17:27:33;;;;;;;0.73;0.35;;;26.20;99.90;29.00;100783.00;;;;5016303;28;20321;-69
2023/07/11 17:30:18;;;;;;;0.43;0.43;;;25.90;99.90;28.80;100778.00;;;;5033201;28;20183;-69
2023/07/11 17:32:46;;;;;;;0.10;0.10;;;25.70;99.90;29.00;100780.00;;;;5032022;28;20214;-70
2023/07/11 17:35:14;;;;;;;0.98;0.52;;;25.70;99.90;28.90;100776.00;;;;5033709;28;20554;-69
2023/07/11 17:37:47;;;;;;;0.95;0.95;;;25.60;99.90;28.90;100783.00;;;;5021312;28;20194;-70
2023/07/11 17:40:24;;;;;;;0.20;0.20;;;25.70;99.90;29.40;100776.00;;;;5032663;28;20191;-70
2023/07/11 17:42:52;;;;;;;0.47;0.47;;;25.70;99.90;29.20;100787.00;;;;5015866;28;20186;-70
2023/07/11 17:45:20;;;;;;;5.72;5.28;;;25.70;99.90;28.90;100772.00;;;;5032888;28;20244;-69
2023/07/11 17:47:46;;;;;;;0.30;0.30;;;25.70;99.90;28.30;100769.00;;;;5032152;28;20177;-69
2023/07/11 17:50:25;;;;;;;0.50;0.50;;;25.40;99.90;28.20;100770.00;;;;5033695;28;20221;-69
2023/07/11 17:52:52;;;;;;;0.68;0.68;;;25.20;99.90;28.50;100773.00;;;;5015643;28;20217;-69
2023/07/11 17:55:18;;;;;;;0.38;0.38;;;25.30;99.90;28.40;100749.00;;;;5016340;28;20187;-69
2023/07/11 17:57:45;;;;;;;0.52;0.52;;;25.20;99.90;28.00;100747.00;;;;5032192;28;20252;-69
2023/07/11 18:00:20;;;;;;;0.50;0.50;;;25.20;99.90;28.60;100760.00;;;;5032420;28;20187;-69
2023/07/11 18:02:48;;;;;;;1.42;1.08;;;25.10;99.90;27.90;100763.00;;;;5032294;28;20562;-69
2023/07/11 18:05:21;;;;;;;0.65;0.65;;;24.90;99.90;27.40;100757.00;;;;5032290;28;20521;-69
2023/07/11 18:07:49;;;;;;;0.40;0.40;;;24.70;99.90;27.80;100767.00;;;;5031900;28;20187;-69
2023/07/11 18:10:29;;;;;;;0.20;0.20;;;24.70;99.90;27.50;100775.00;;;;5032539;28;20270;-69
2023/07/11 18:12:56;;;;;;;4.05;1.52;;;24.50;99.90;27.50;100774.00;;;;5027204;28;20194;-70
2023/07/11 18:15:26;;;;;;;0.50;0.50;;;24.60;99.90;28.00;100774.00;;;;5033128;28;20227;-69
2023/07/11 18:17:54;;;;;;;0.10;0.10;;;24.70;99.90;28.10;100772.00;;;;5031769;28;20186;-69
2023/07/11 18:20:30;;;;;;;1.17;0.68;;;24.70;99.90;28.50;100748.00;;;;5032002;28;20526;-69
2023/07/11 18:22:57;;;;;;;0.80;0.73;;;24.90;99.90;27.30;100751.00;;;;5032158;28;20190;-69
2023/07/11 18:25:24;;;;;;;0.20;0.20;;;24.60;99.90;27.30;100707.00;;;;5032009;28;20281;-69
2023/07/11 18:28:17;;;;;;;0.55;0.55;;;24.40;99.90;28.00;100762.00;;;;5031884;28;20179;-69
2023/07/11 18:30:43;;;;;;;0.20;0.20;;;24.40;99.90;28.60;100760.00;;;;5014185;28;20185;-69
2023/07/11 18:33:09;;;;;;;0.10;0.10;;;24.70;99.90;28.30;100759.00;;;;5031627;28;20557;-70
2023/07/11 18:35:40;;;;;;;0.15;0.15;;;24.80;99.90;28.20;100765.00;;;;5032204;28;20175;-70
2023/07/11 18:38:20;;;;;;;0.15;0.15;;;24.80;99.90;28.50;100762.00;;;;5031881;28;20197;-70
2023/07/11 18:40:47;;;;;;;0.10;0.10;;;24.90;99.90;28.40;100774.00;;;;5048461;28;20175;-70
2023/07/11 18:43:23;;;;;;;0.20;0.20;;;24.80;99.90;28.70;100787.00;;;;5031691;28;20182;-70